createdAt,value
2022-10-24T00:01:31.036Z,85.90
2022-10-24T00:03:59.427Z,86.00
2022-10-24T00:06:27.512Z,85.90
2022-10-24T00:08:55.414Z,85.90
2022-10-24T00:11:27.370Z,85.90
2022-10-24T00:13:57.186Z,85.80
2022-10-24T00:16:25.169Z,85.80
2022-10-24T00:18:53.148Z,85.70
2022-10-24T00:21:21.264Z,85.80
2022-10-24T00:23:49.230Z,85.70
2022-10-24T00:26:17.690Z,85.80
2022-10-24T00:28:47.659Z,85.80
2022-10-24T00:31:17.957Z,85.80
2022-10-24T00:33:46.207Z,85.80
2022-10-24T00:36:16.036Z,85.60
2022-10-24T00:38:44.118Z,85.60
2022-10-24T00:41:16.202Z,85.70
2022-10-24T00:43:44.235Z,85.80
2022-10-24T00:46:14.262Z,85.80
2022-10-24T00:48:45.975Z,85.70
2022-10-24T00:51:24.422Z,85.70
2022-10-24T00:53:54.766Z,85.80
2022-10-24T00:56:25.989Z,85.80
2022-10-24T00:58:55.762Z,85.90
2022-10-24T01:01:25.618Z,85.90
2022-10-24T01:03:53.681Z,86.00
2022-10-24T01:06:43.222Z,86.00
2022-10-24T01:09:21.458Z,86.00
2022-10-24T01:12:00.133Z,85.90
2022-10-24T01:14:39.215Z,85.90
2022-10-24T01:17:14.239Z,85.90
2022-10-24T01:20:12.950Z,86.00
2022-10-24T01:22:50.679Z,86.00
2022-10-24T01:25:26.327Z,86.00
2022-10-24T01:28:05.555Z,86.00
2022-10-24T01:30:42.539Z,85.90
2022-10-24T01:33:19.499Z,85.90
2022-10-24T01:35:54.492Z,85.90
2022-10-24T01:38:27.853Z,85.80
2022-10-24T01:40:59.576Z,85.80
2022-10-24T01:43:30.056Z,85.80
2022-10-24T01:46:03.696Z,85.70
2022-10-24T01:48:35.921Z,85.70
2022-10-24T01:51:05.561Z,85.70
2022-10-24T01:53:33.535Z,85.80
2022-10-24T01:56:02.735Z,85.80
2022-10-24T01:58:31.201Z,85.90
2022-10-24T02:01:06.561Z,85.80
2022-10-24T02:03:38.054Z,85.80
2022-10-24T02:06:11.688Z,85.80
2022-10-24T02:08:43.991Z,85.90
2022-10-24T02:11:12.857Z,86.00
2022-10-24T02:13:46.229Z,85.90
2022-10-24T02:16:18.746Z,85.90
2022-10-24T02:18:47.873Z,85.70
2022-10-24T02:21:26.503Z,85.70
2022-10-24T02:23:58.943Z,85.60
2022-10-24T02:26:33.753Z,85.60
2022-10-24T02:29:05.588Z,85.50
2022-10-24T02:31:37.873Z,85.50
2022-10-24T02:34:08.998Z,85.50
2022-10-24T02:36:38.372Z,85.50
2022-10-24T02:39:09.715Z,85.40
2022-10-24T02:41:40.326Z,85.30
2022-10-24T02:44:10.085Z,85.30
2022-10-24T02:46:43.558Z,85.30
2022-10-24T02:49:12.935Z,85.20
2022-10-24T02:51:44.379Z,85.30
2022-10-24T02:54:12.435Z,85.30
2022-10-24T02:56:44.828Z,85.30
2022-10-24T02:59:12.723Z,85.20
2022-10-24T03:01:42.115Z,85.10
2022-10-24T03:04:10.035Z,85.10
2022-10-24T03:06:38.311Z,85.10
2022-10-24T03:09:06.224Z,85.10
2022-10-24T03:11:34.538Z,85.20
2022-10-24T03:14:02.879Z,85.10
2022-10-24T03:16:30.802Z,85.10
2022-10-24T03:19:00.439Z,85.10
2022-10-24T03:21:28.418Z,85.10
2022-10-24T03:23:56.415Z,85.10
2022-10-24T03:26:24.380Z,85.10
2022-10-24T03:28:52.275Z,85.20
2022-10-24T03:31:20.165Z,85.10
2022-10-24T03:33:48.070Z,85.30
2022-10-24T03:36:18.566Z,85.40
2022-10-24T03:38:46.504Z,85.50
2022-10-24T03:41:14.427Z,85.50
2022-10-24T03:43:42.420Z,85.50
2022-10-24T03:46:10.367Z,85.50
2022-10-24T03:48:38.316Z,85.40
2022-10-24T03:51:06.646Z,85.40
2022-10-24T03:53:36.059Z,85.30
2022-10-24T03:56:04.241Z,85.10
2022-10-24T03:58:32.386Z,85.00
2022-10-24T04:01:00.344Z,84.90
2022-10-24T04:03:28.925Z,84.80
2022-10-24T04:05:56.990Z,84.60
2022-10-24T04:08:24.951Z,84.70
2022-10-24T04:10:54.217Z,84.70
2022-10-24T04:13:22.589Z,84.70
2022-10-24T04:15:50.465Z,84.70
2022-10-24T04:18:18.431Z,84.70
2022-10-24T04:20:46.403Z,84.70
2022-10-24T04:23:14.598Z,84.50
2022-10-24T04:25:42.675Z,84.50
2022-10-24T04:28:11.953Z,84.40
2022-10-24T04:30:39.920Z,84.40
2022-10-24T04:33:07.842Z,84.50
2022-10-24T04:35:35.800Z,84.40
2022-10-24T04:38:04.048Z,84.30
2022-10-24T04:40:31.971Z,84.30
2022-10-24T04:42:59.892Z,84.30
2022-10-24T04:45:29.165Z,84.40
2022-10-24T04:47:57.036Z,84.30
2022-10-24T04:50:24.925Z,84.30
2022-10-24T04:52:52.924Z,84.40
2022-10-24T04:55:20.888Z,84.40
2022-10-24T04:57:48.792Z,84.40
2022-10-24T05:00:17.462Z,84.40
2022-10-24T05:02:46.742Z,84.30
2022-10-24T05:05:15.094Z,84.30
2022-10-24T05:07:43.306Z,84.30
2022-10-24T05:10:12.334Z,84.40
2022-10-24T05:12:40.588Z,84.40
2022-10-24T05:15:09.660Z,84.30
2022-10-24T05:17:37.650Z,84.30
2022-10-24T05:20:08.261Z,84.30
2022-10-24T05:22:36.202Z,84.40
2022-10-24T05:25:04.881Z,84.40
2022-10-24T05:27:33.147Z,84.50
2022-10-24T05:30:01.136Z,84.50
2022-10-24T05:32:29.130Z,84.50
2022-10-24T05:34:57.032Z,84.60
2022-10-24T05:37:26.367Z,84.60
2022-10-24T05:39:54.268Z,84.60
2022-10-24T05:42:22.171Z,84.70
2022-10-24T05:44:50.028Z,84.70
2022-10-24T05:47:18.023Z,84.70
2022-10-24T05:49:45.868Z,84.80
2022-10-24T05:52:13.756Z,84.70
2022-10-24T05:54:55.464Z,84.80
2022-10-24T05:57:30.780Z,84.90
2022-10-24T05:59:58.891Z,85.00
2022-10-24T06:02:27.038Z,85.10
2022-10-24T06:04:56.182Z,85.10
2022-10-24T06:07:24.597Z,85.10
2022-10-24T06:09:53.962Z,85.00
2022-10-24T06:12:21.982Z,85.00
2022-10-24T06:14:50.026Z,85.10
2022-10-24T06:17:18.011Z,85.10
2022-10-24T06:19:46.176Z,85.10
2022-10-24T06:22:14.208Z,85.10
2022-10-24T06:24:42.131Z,85.20
2022-10-24T06:27:11.787Z,85.20
2022-10-24T06:29:39.729Z,85.30
2022-10-24T06:32:07.751Z,85.20
2022-10-24T06:34:35.687Z,85.30
2022-10-24T06:37:03.699Z,85.40
2022-10-24T06:39:31.860Z,85.50
2022-10-24T06:41:59.849Z,85.50
2022-10-24T06:44:29.140Z,85.50
2022-10-24T06:46:57.194Z,85.50
2022-10-24T06:49:25.176Z,85.50
2022-10-24T06:51:53.744Z,85.50
2022-10-24T06:54:23.227Z,85.50
2022-10-24T06:56:53.230Z,85.40
2022-10-24T06:59:21.111Z,85.30
2022-10-24T07:01:50.512Z,85.30
2022-10-24T07:04:18.609Z,85.50
2022-10-24T07:06:46.580Z,85.50
2022-10-24T07:09:15.662Z,85.50
2022-10-24T07:11:43.850Z,85.60
2022-10-24T07:14:12.546Z,85.60
2022-10-24T07:16:41.370Z,85.60
2022-10-24T07:19:11.806Z,85.60
2022-10-24T07:21:39.830Z,85.60
2022-10-24T07:24:08.674Z,85.60
2022-10-24T07:26:36.597Z,85.60
2022-10-24T07:29:04.808Z,85.50
2022-10-24T07:31:34.982Z,85.30
2022-10-24T07:34:04.754Z,85.20
2022-10-24T07:36:34.147Z,85.20
2022-10-24T07:39:02.691Z,85.20
2022-10-24T07:41:32.262Z,85.20
2022-10-24T07:44:02.108Z,85.40
2022-10-24T07:46:30.563Z,85.40
2022-10-24T07:48:58.648Z,85.40
2022-10-24T07:51:28.467Z,85.40
2022-10-24T07:53:58.372Z,85.40
2022-10-24T07:56:26.518Z,85.50
2022-10-24T07:58:55.089Z,85.50
2022-10-24T08:01:25.633Z,85.50
2022-10-24T08:03:53.711Z,85.50
2022-10-24T08:06:23.591Z,85.50
2022-10-24T08:08:51.744Z,85.50
2022-10-24T08:11:23.113Z,85.50
2022-10-24T08:13:52.005Z,85.60
2022-10-24T08:16:22.812Z,85.50
2022-10-24T08:18:52.183Z,85.50
2022-10-24T08:21:22.007Z,85.40
2022-10-24T08:23:53.077Z,85.40
2022-10-24T08:26:24.714Z,85.40
2022-10-24T08:28:53.266Z,85.40
2022-10-24T08:31:26.280Z,85.50
2022-10-24T08:33:55.749Z,85.50
2022-10-24T08:36:26.489Z,85.50
2022-10-24T08:38:54.977Z,85.50
2022-10-24T08:41:31.756Z,85.50
2022-10-24T08:44:02.791Z,85.50
2022-10-24T08:46:44.256Z,85.60
2022-10-24T08:49:20.058Z,85.60
2022-10-24T08:51:52.229Z,85.60
2022-10-24T08:54:24.269Z,85.60
2022-10-24T08:56:57.913Z,85.60
2022-10-24T08:59:27.775Z,85.60
2022-10-24T09:02:03.366Z,85.60
2022-10-24T09:04:39.746Z,85.60
2022-10-24T09:07:15.089Z,85.60
2022-10-24T09:09:49.654Z,85.60
2022-10-24T09:12:20.883Z,85.70
2022-10-24T09:14:55.528Z,85.60
2022-10-24T09:17:25.742Z,85.60
2022-10-24T09:19:57.107Z,85.50
2022-10-24T09:22:28.047Z,85.50
2022-10-24T09:24:59.282Z,85.60
2022-10-24T09:27:30.880Z,85.60
2022-10-24T09:29:59.884Z,85.60
2022-10-24T09:32:30.537Z,85.50
2022-10-24T09:35:01.345Z,85.50
2022-10-24T09:37:47.190Z,85.50
2022-10-24T09:40:22.884Z,85.50
2022-10-24T09:42:57.001Z,85.60
2022-10-24T09:45:47.357Z,85.60
2022-10-24T09:48:26.174Z,85.50
2022-10-24T09:50:59.923Z,85.50
2022-10-24T09:53:31.447Z,85.50
2022-10-24T09:56:01.633Z,85.50
2022-10-24T09:58:33.743Z,85.60
2022-10-24T10:01:05.187Z,85.50
2022-10-24T10:03:34.990Z,85.50
2022-10-24T10:06:09.481Z,85.50
2022-10-24T10:08:38.811Z,85.50
2022-10-24T10:11:08.936Z,85.40
2022-10-24T10:13:49.627Z,85.40
2022-10-24T10:16:24.046Z,85.50
2022-10-24T10:19:02.043Z,85.50
2022-10-24T10:21:55.532Z,85.50
2022-10-24T10:24:28.786Z,85.30
2022-10-24T10:26:56.827Z,85.50
2022-10-24T10:29:25.480Z,85.50
2022-10-24T10:31:59.349Z,85.50
2022-10-24T10:34:35.708Z,85.30
2022-10-24T10:37:28.099Z,85.30
2022-10-24T10:40:16.477Z,85.30
2022-10-24T10:42:55.566Z,85.30
2022-10-24T10:45:35.266Z,85.30
2022-10-24T10:48:13.658Z,85.30
2022-10-24T10:50:46.929Z,85.20
2022-10-24T10:53:30.599Z,85.20
2022-10-24T10:56:07.610Z,85.10
2022-10-24T10:58:43.441Z,85.00
2022-10-24T11:01:21.027Z,84.90
2022-10-24T11:03:55.502Z,84.90
2022-10-24T11:06:31.772Z,84.90
2022-10-24T11:09:36.128Z,84.90
2022-10-24T11:12:10.710Z,84.80
2022-10-24T11:14:42.076Z,84.80
2022-10-24T11:17:17.066Z,84.80
2022-10-24T11:19:57.631Z,84.80
2022-10-24T11:22:30.140Z,84.60
2022-10-24T11:25:04.296Z,84.60
2022-10-24T11:27:39.756Z,84.70
2022-10-24T11:30:15.343Z,84.70
2022-10-24T11:32:50.935Z,84.50
2022-10-24T11:35:26.658Z,84.60
2022-10-24T11:38:00.199Z,84.60
2022-10-24T11:40:31.156Z,84.70
2022-10-24T11:43:07.947Z,84.70
2022-10-24T11:45:45.739Z,84.70
2022-10-24T11:48:17.974Z,84.70
2022-10-24T11:50:50.840Z,84.60
2022-10-24T11:53:27.364Z,84.50
2022-10-24T11:56:00.724Z,84.60
2022-10-24T11:58:33.362Z,84.60
2022-10-24T12:01:25.718Z,84.60
2022-10-24T12:04:07.920Z,84.60
2022-10-24T12:06:54.082Z,84.70
2022-10-24T12:09:42.984Z,84.60
2022-10-24T12:12:47.819Z,84.60
2022-10-24T12:15:39.020Z,84.60
2022-10-24T12:18:12.672Z,84.70
2022-10-24T12:20:42.076Z,84.60
2022-10-24T12:23:19.809Z,84.50
2022-10-24T12:25:53.035Z,84.60
2022-10-24T12:28:26.505Z,84.60
2022-10-24T12:31:11.224Z,84.50
2022-10-24T12:33:39.141Z,84.50
2022-10-24T12:36:07.510Z,84.50
2022-10-24T12:39:09.501Z,84.50
2022-10-24T12:41:45.371Z,84.40
2022-10-24T12:44:45.943Z,84.40
2022-10-24T12:47:31.710Z,84.30
2022-10-24T12:50:20.690Z,84.40
2022-10-24T12:53:03.584Z,84.40
2022-10-24T12:56:06.422Z,84.20
2022-10-24T12:58:36.800Z,84.10
2022-10-24T13:01:11.088Z,84.10
2022-10-24T13:03:57.544Z,84.10
2022-10-24T13:06:31.374Z,84.20
2022-10-24T13:09:15.752Z,84.20
2022-10-24T13:11:56.637Z,84.20
2022-10-24T13:14:40.749Z,84.10
2022-10-24T13:17:16.755Z,83.90
2022-10-24T13:19:44.867Z,84.00
2022-10-24T13:22:29.653Z,84.00
2022-10-24T13:24:58.039Z,84.00
2022-10-24T13:27:29.393Z,83.90
2022-10-24T13:30:23.032Z,83.90
2022-10-24T13:32:52.636Z,83.90
2022-10-24T13:35:25.865Z,84.00
2022-10-24T13:38:00.536Z,84.00
2022-10-24T13:40:33.155Z,84.10
2022-10-24T13:43:07.702Z,84.10
2022-10-24T13:45:42.829Z,84.00
2022-10-24T13:48:17.653Z,84.00
2022-10-24T13:50:51.816Z,84.00
2022-10-24T13:53:29.761Z,84.10
2022-10-24T13:56:01.699Z,84.10
2022-10-24T13:58:39.933Z,84.10
2022-10-24T14:01:18.592Z,84.00
2022-10-24T14:03:49.289Z,83.90
2022-10-24T14:06:17.707Z,83.90
2022-10-24T14:08:57.469Z,83.90
2022-10-24T14:11:32.973Z,84.00
2022-10-24T14:14:07.108Z,84.00
2022-10-24T14:16:36.370Z,84.00
2022-10-24T14:19:28.227Z,84.00
2022-10-24T14:21:59.147Z,84.00
2022-10-24T14:24:28.068Z,84.00
2022-10-24T14:26:56.899Z,84.00
2022-10-24T14:29:27.631Z,84.00
2022-10-24T14:31:57.719Z,83.90
2022-10-24T14:34:27.353Z,83.80
2022-10-24T14:36:57.732Z,83.90
2022-10-24T14:39:26.163Z,83.90
2022-10-24T14:41:55.045Z,84.00
2022-10-24T14:44:23.995Z,84.00
2022-10-24T14:47:03.819Z,84.00
2022-10-24T14:49:36.710Z,84.00
2022-10-24T14:52:11.738Z,84.10
2022-10-24T14:54:42.403Z,84.00
2022-10-24T14:57:18.405Z,84.00
2022-10-24T14:59:48.610Z,83.90
2022-10-24T15:02:22.906Z,83.80
2022-10-24T15:04:53.314Z,83.90
2022-10-24T15:07:32.425Z,83.80
2022-10-24T15:10:04.239Z,83.80
2022-10-24T15:12:38.232Z,83.90
2022-10-24T15:15:25.487Z,83.80
2022-10-24T15:17:54.889Z,83.70
2022-10-24T15:20:28.425Z,83.70
2022-10-24T15:22:58.976Z,83.70
2022-10-24T15:25:30.657Z,83.60
2022-10-24T15:28:00.239Z,83.70
2022-10-24T15:30:30.597Z,83.60
2022-10-24T15:33:00.110Z,83.60
2022-10-24T15:35:30.839Z,83.50
2022-10-24T15:38:00.713Z,83.50
2022-10-24T15:40:30.980Z,83.50
2022-10-24T15:42:58.988Z,83.60
2022-10-24T15:45:27.315Z,83.70
2022-10-24T15:47:55.255Z,83.70
2022-10-24T15:50:24.890Z,83.60
2022-10-24T15:52:56.883Z,83.70
2022-10-24T15:55:26.686Z,83.60
2022-10-24T15:58:51.000Z,83.60
2022-10-24T16:01:24.439Z,83.60
2022-10-24T16:03:52.441Z,83.70
2022-10-24T16:06:21.870Z,83.60
2022-10-24T16:08:52.276Z,83.70
2022-10-24T16:11:20.654Z,83.70
2022-10-24T16:13:48.777Z,83.70
2022-10-24T16:16:16.695Z,83.80
2022-10-24T16:18:44.575Z,83.80
2022-10-24T16:21:17.967Z,83.80
2022-10-24T16:23:46.516Z,83.80
2022-10-24T16:26:16.491Z,83.80
2022-10-24T16:28:44.397Z,83.80
2022-10-24T16:31:18.494Z,83.80
2022-10-24T16:33:46.462Z,83.70
2022-10-24T16:36:17.397Z,83.80
2022-10-24T16:38:47.280Z,83.80
2022-10-24T16:41:18.479Z,83.90
2022-10-24T16:43:49.135Z,83.90
2022-10-24T16:46:21.012Z,83.90
2022-10-24T16:48:49.250Z,84.00
2022-10-24T16:51:19.376Z,84.00
2022-10-24T16:53:47.252Z,84.00
2022-10-24T16:56:17.715Z,83.90
2022-10-24T16:58:45.783Z,84.00
2022-10-24T17:01:16.436Z,84.10
2022-10-24T17:03:45.798Z,84.10
2022-10-24T17:06:14.454Z,84.10
2022-10-24T17:08:42.480Z,84.20
2022-10-24T17:11:32.332Z,84.30
2022-10-24T17:14:00.725Z,84.30
2022-10-24T17:16:28.836Z,84.40
2022-10-24T17:19:12.340Z,84.40
2022-10-24T17:21:43.845Z,84.40
2022-10-24T17:24:12.829Z,84.40
2022-10-24T17:26:41.176Z,84.50
2022-10-24T17:29:13.825Z,84.50
2022-10-24T17:31:41.875Z,84.60
2022-10-24T17:34:10.947Z,84.60
2022-10-24T17:36:40.861Z,84.60
2022-10-24T17:39:13.376Z,84.60
2022-10-24T17:41:42.300Z,84.70
2022-10-24T17:44:16.639Z,84.70
2022-10-24T17:46:45.034Z,84.70
2022-10-24T17:49:20.733Z,84.70
2022-10-24T17:51:50.120Z,84.70
2022-10-24T17:54:18.606Z,84.70
2022-10-24T17:56:46.639Z,84.70
2022-10-24T17:59:15.954Z,84.70
2022-10-24T18:01:44.329Z,84.70
2022-10-24T18:04:12.343Z,84.70
2022-10-24T18:06:42.980Z,84.70
2022-10-24T18:09:11.289Z,84.60
2022-10-24T18:11:39.873Z,84.70
2022-10-24T18:14:07.892Z,84.70
2022-10-24T18:16:39.010Z,84.70
2022-10-24T18:19:07.301Z,84.70
2022-10-24T18:21:35.410Z,84.70
2022-10-24T18:24:03.405Z,84.70
2022-10-24T18:26:31.408Z,84.70
2022-10-24T18:28:59.376Z,84.70
2022-10-24T18:31:29.546Z,84.60
2022-10-24T18:34:03.670Z,84.60
2022-10-24T18:36:36.374Z,84.60
2022-10-24T18:39:05.443Z,84.60
2022-10-24T18:41:43.727Z,84.60
2022-10-24T18:44:24.885Z,84.40
2022-10-24T18:46:55.210Z,84.40
2022-10-24T18:49:25.129Z,84.40
2022-10-24T18:52:14.724Z,84.40
2022-10-24T18:55:01.997Z,84.40
2022-10-24T18:57:31.973Z,84.40
2022-10-24T19:00:00.402Z,84.40
2022-10-24T19:02:34.086Z,84.30
2022-10-24T19:05:16.329Z,84.20
2022-10-24T19:07:45.062Z,84.20
2022-10-24T19:10:19.220Z,84.20
2022-10-24T19:12:47.617Z,84.20
2022-10-24T19:15:16.685Z,84.10
2022-10-24T19:17:44.862Z,84.10
2022-10-24T19:20:19.798Z,84.10
2022-10-24T19:22:47.991Z,84.00
2022-10-24T19:25:17.541Z,84.00
2022-10-24T19:27:45.714Z,84.00
2022-10-24T19:30:14.570Z,83.90
2022-10-24T19:32:42.618Z,84.00
2022-10-24T19:35:10.607Z,83.90
2022-10-24T19:37:39.861Z,83.80
2022-10-24T19:40:09.404Z,83.90
2022-10-24T19:42:37.463Z,83.80
2022-10-24T19:45:07.516Z,83.80
2022-10-24T19:47:35.699Z,83.60
2022-10-24T19:50:03.678Z,83.80
2022-10-24T19:52:31.568Z,83.80
2022-10-24T19:55:00.793Z,83.70
2022-10-24T19:57:29.521Z,83.70
2022-10-24T19:59:57.438Z,83.60
2022-10-24T20:02:27.581Z,83.70
2022-10-24T20:04:55.521Z,83.80
2022-10-24T20:07:23.454Z,83.80
2022-10-24T20:09:51.372Z,83.70
2022-10-24T20:12:20.689Z,83.70
2022-10-24T20:14:48.626Z,83.70
2022-10-24T20:17:16.999Z,83.70
2022-10-24T20:19:45.044Z,83.70
2022-10-24T20:22:12.938Z,83.60
2022-10-24T20:24:40.918Z,83.70
2022-10-24T20:27:08.888Z,83.70
2022-10-24T20:29:38.225Z,83.70
2022-10-24T20:32:06.216Z,83.70
2022-10-24T20:34:34.272Z,83.70
2022-10-24T20:37:02.209Z,83.70
2022-10-24T20:39:30.060Z,83.60
2022-10-24T20:41:58.036Z,83.60
2022-10-24T20:44:26.027Z,83.60
2022-10-24T20:46:56.663Z,83.60
2022-10-24T20:49:24.572Z,83.70
2022-10-24T20:51:52.799Z,83.70
2022-10-24T20:54:20.793Z,83.70
2022-10-24T20:56:48.654Z,83.70
2022-10-24T20:59:16.973Z,83.70
2022-10-24T21:01:45.018Z,83.60
2022-10-24T21:04:17.029Z,83.60
2022-10-24T21:06:47.937Z,83.60
2022-10-24T21:09:15.865Z,83.60
2022-10-24T21:11:43.769Z,83.60
2022-10-24T21:14:13.299Z,83.50
2022-10-24T21:16:41.234Z,83.50
2022-10-24T21:19:09.136Z,83.60
2022-10-24T21:21:38.441Z,83.50
2022-10-24T21:24:07.193Z,83.50
2022-10-24T21:26:38.185Z,83.50
2022-10-24T21:29:31.828Z,83.50
2022-10-24T21:31:54.886Z,83.40
2022-10-24T21:34:22.772Z,83.40
2022-10-24T21:36:52.002Z,83.40
2022-10-24T21:39:19.958Z,83.50
2022-10-24T21:41:47.953Z,83.30
2022-10-24T21:44:15.886Z,83.20
2022-10-24T21:46:43.875Z,83.40
2022-10-24T21:49:11.859Z,83.40
2022-10-24T21:51:41.350Z,83.30
2022-10-24T21:54:17.682Z,83.30
2022-10-24T21:56:45.928Z,83.40
2022-10-24T21:59:16.502Z,83.40
2022-10-24T22:01:46.366Z,83.40
2022-10-24T22:04:15.097Z,83.40
2022-10-24T22:06:43.337Z,83.40
2022-10-24T22:09:15.548Z,83.20
2022-10-24T22:11:44.233Z,83.20
2022-10-24T22:14:15.194Z,83.20
2022-10-24T22:16:43.842Z,83.20
2022-10-24T22:19:13.731Z,83.20
2022-10-24T22:21:43.154Z,83.20
2022-10-24T22:24:14.298Z,83.10
2022-10-24T22:26:42.755Z,83.10
2022-10-24T22:29:13.964Z,83.00
2022-10-24T22:31:42.634Z,83.00
2022-10-24T22:34:15.467Z,83.10
2022-10-24T22:36:52.948Z,83.00
2022-10-24T22:39:24.117Z,82.90
2022-10-24T22:41:53.061Z,82.90
2022-10-24T22:44:22.539Z,82.90
2022-10-24T22:47:29.935Z,82.80
2022-10-24T22:50:08.021Z,82.70
2022-10-24T22:52:36.309Z,82.70
2022-10-24T22:55:12.600Z,82.70
2022-10-24T22:57:41.442Z,82.70
2022-10-24T23:00:11.277Z,82.70
2022-10-24T23:02:45.871Z,82.60
2022-10-24T23:05:25.357Z,82.50
2022-10-24T23:07:57.995Z,82.50
2022-10-24T23:10:28.229Z,82.50
2022-10-24T23:12:56.724Z,82.50
2022-10-24T23:15:25.356Z,82.50
2022-10-24T23:17:53.760Z,82.50
2022-10-24T23:20:32.839Z,82.40
2022-10-24T23:23:16.577Z,82.30
2022-10-24T23:25:57.423Z,82.20
2022-10-24T23:28:34.582Z,82.10
2022-10-24T23:33:36.427Z,82.00
2022-10-24T23:36:05.096Z,82.00
2022-10-24T23:38:33.919Z,81.90
2022-10-24T23:41:03.932Z,81.80
2022-10-24T23:43:32.364Z,81.80
2022-10-24T23:46:02.780Z,81.80
2022-10-24T23:48:44.809Z,81.80
2022-10-24T23:51:15.691Z,81.80
2022-10-24T23:53:50.271Z,81.80
2022-10-24T23:56:21.611Z,81.80
2022-10-24T23:58:50.039Z,81.80
